Time;durP1;ratioP1;P1;durP2;ratioP2;P2;SDS_P1;SDS_P2;PMS_P1;PMS_P2;Temp;Humidity;BMP_temperature;BMP_pressure;BME280_temperature;BME280_humidity;BME280_pressure;Samples;Min_cycle;Max_cycle;Signal;HPM_P1;HPM_P2
2021/12/12 00:01:17;;;;;;;3.37;2.07;;;5.50;99.90;;;;;;4968071;28;20207;-65
2021/12/12 00:03:52;;;;;;;3.80;1.80;;;5.50;99.90;;;;;;4969398;28;20271;-65
2021/12/12 00:06:23;;;;;;;2.23;1.80;;;5.50;99.90;;;;;;4962428;28;20212;-65
2021/12/12 00:08:57;;;;;;;3.60;2.00;;;5.60;99.90;;;;;;4967151;28;20189;-65
2021/12/12 00:11:30;;;;;;;3.83;2.17;;;5.60;99.90;;;;;;5014237;28;20177;-65
2021/12/12 00:14:24;;;;;;;5.37;2.10;;;5.60;99.90;;;;;;4968590;28;20200;-65
2021/12/12 00:16:52;;;;;;;2.93;2.03;;;5.70;99.90;;;;;;4972157;28;20197;-65
2021/12/12 00:19:23;;;;;;;2.83;1.90;;;5.70;99.90;;;;;;4971201;28;20201;-65
2021/12/12 00:21:53;;;;;;;2.97;1.90;;;5.60;99.90;;;;;;4981493;28;20187;-65
2021/12/12 00:24:21;;;;;;;4.63;1.70;;;5.70;99.90;;;;;;4978146;28;20446;-65
2021/12/12 00:26:52;;;;;;;3.53;2.00;;;5.70;99.90;;;;;;4970602;28;20196;-66
2021/12/12 00:29:22;;;;;;;3.97;2.07;;;5.70;99.90;;;;;;4977059;28;20204;-68
2021/12/12 00:31:57;;;;;;;3.33;2.00;;;5.70;99.90;;;;;;4976972;28;20614;-69
2021/12/12 00:34:23;;;;;;;3.47;2.00;;;5.70;99.90;;;;;;4979084;28;20202;-69
2021/12/12 00:36:51;;;;;;;2.67;2.20;;;5.70;99.90;;;;;;4970503;28;20328;-69
2021/12/12 00:39:23;;;;;;;4.37;2.10;;;5.70;99.90;;;;;;4970763;28;20265;-69
2021/12/12 00:42:00;;;;;;;3.97;2.13;;;5.70;99.90;;;;;;4974719;28;20184;-69
2021/12/12 00:44:26;;;;;;;2.77;2.03;;;5.70;99.90;;;;;;4967216;28;20250;-69
2021/12/12 00:46:56;;;;;;;3.67;1.90;;;5.70;99.90;;;;;;4972578;28;21113;-69
2021/12/12 00:49:24;;;;;;;2.63;1.80;;;5.70;99.90;;;;;;4960852;28;20232;-68
2021/12/12 00:51:50;;;;;;;4.80;2.40;;;5.70;99.90;;;;;;4973982;28;20307;-68
2021/12/12 00:54:19;;;;;;;3.93;1.87;;;5.70;99.90;;;;;;4970739;28;20183;-68
2021/12/12 00:56:46;;;;;;;3.43;1.90;;;5.70;99.90;;;;;;4971134;28;20180;-67
2021/12/12 00:59:12;;;;;;;2.60;1.90;;;5.70;99.90;;;;;;4968588;28;20204;-69
2021/12/12 01:01:50;;;;;;;2.80;1.70;;;5.70;99.90;;;;;;4970460;28;20370;-69
2021/12/12 01:04:21;;;;;;;3.00;1.97;;;5.70;99.90;;;;;;4968103;28;20231;-69
2021/12/12 01:06:48;;;;;;;4.13;2.00;;;5.70;99.90;;;;;;4974487;28;20195;-68
2021/12/12 01:09:23;;;;;;;3.57;2.20;;;5.80;99.90;;;;;;4971675;28;20198;-69
2021/12/12 01:11:52;;;;;;;3.27;2.07;;;5.80;99.90;;;;;;4982662;28;20208;-68
2021/12/12 01:14:25;;;;;;;3.73;2.33;;;5.80;99.90;;;;;;4971651;28;20180;-69
2021/12/12 01:17:05;;;;;;;3.30;2.00;;;5.80;99.90;;;;;;4969337;28;20257;-69
2021/12/12 01:19:57;;;;;;;5.33;2.13;;;5.80;99.90;;;;;;4975753;28;20345;-68
2021/12/12 01:22:32;;;;;;;2.63;1.70;;;5.80;99.90;;;;;;4964670;28;20201;-69
2021/12/12 01:25:05;;;;;;;3.23;1.87;;;5.80;99.90;;;;;;4987803;28;20215;-69
2021/12/12 01:27:36;;;;;;;5.30;2.10;;;5.80;99.90;;;;;;4963109;28;20184;-69
2021/12/12 01:30:07;;;;;;;3.30;1.90;;;5.80;99.90;;;;;;4973425;28;20180;-69
2021/12/12 01:32:35;;;;;;;3.40;1.87;;;5.80;99.90;;;;;;4972112;28;20208;-67
2021/12/12 01:35:13;;;;;;;3.70;2.07;;;5.80;99.90;;;;;;4969322;28;20655;-68
2021/12/12 01:37:50;;;;;;;4.57;2.20;;;5.80;99.90;;;;;;4971384;28;20353;-68
2021/12/12 01:40:23;;;;;;;4.50;2.10;;;5.80;99.90;;;;;;4970306;28;20199;-69
2021/12/12 01:42:59;;;;;;;4.20;2.20;;;5.80;99.90;;;;;;4972294;28;20195;-69
2021/12/12 01:45:29;;;;;;;4.03;2.10;;;5.80;99.90;;;;;;4979973;28;20226;-69
2021/12/12 01:48:03;;;;;;;4.67;2.07;;;5.70;99.90;;;;;;4967579;28;20188;-68
2021/12/12 01:50:40;;;;;;;5.00;2.27;;;5.80;99.90;;;;;;4970222;28;20207;-69
2021/12/12 01:53:08;;;;;;;3.77;2.30;;;5.80;99.90;;;;;;4981003;28;20204;-69
2021/12/12 01:55:53;;;;;;;4.70;2.50;;;5.70;99.90;;;;;;4958577;28;20180;-69
2021/12/12 01:58:23;;;;;;;3.63;2.10;;;5.70;99.90;;;;;;4964555;28;20196;-69
2021/12/12 02:01:18;;;;;;;4.53;2.00;;;5.80;99.90;;;;;;4969763;28;20187;-69
2021/12/12 02:03:51;;;;;;;3.43;1.80;;;5.70;99.90;;;;;;4966597;28;20230;-69
2021/12/12 02:06:21;;;;;;;3.57;2.30;;;5.70;99.90;;;;;;4965410;28;20191;-69
2021/12/12 02:08:52;;;;;;;3.90;2.13;;;5.70;99.90;;;;;;4970788;28;20184;-68
2021/12/12 02:11:23;;;;;;;3.80;2.07;;;5.70;99.90;;;;;;4978859;28;20199;-69
2021/12/12 02:13:54;;;;;;;4.00;2.03;;;5.70;99.90;;;;;;4967683;28;20181;-68
2021/12/12 02:16:27;;;;;;;2.53;1.80;;;5.70;99.90;;;;;;4976376;28;20195;-68
2021/12/12 02:18:58;;;;;;;3.90;2.40;;;5.70;99.90;;;;;;4983365;28;20185;-68
2021/12/12 02:22:07;;;;;;;3.47;2.00;;;5.70;99.90;;;;;;4970517;28;20179;-69
2021/12/12 02:35:49;;;;;;;6.20;2.10;;;5.70;99.90;;;;;;4966045;28;20496;-69
2021/12/12 02:38:25;;;;;;;3.97;1.87;;;5.80;99.90;;;;;;4970190;28;20168;-69
2021/12/12 02:40:55;;;;;;;3.73;2.10;;;5.80;99.90;;;;;;4963687;28;20192;-68
2021/12/12 02:43:25;;;;;;;4.07;2.13;;;5.80;99.90;;;;;;4965976;28;20234;-69
2021/12/12 02:45:55;;;;;;;3.77;2.00;;;5.80;99.90;;;;;;4974749;28;20176;-69
2021/12/12 02:48:26;;;;;;;4.50;2.00;;;5.80;99.90;;;;;;4969904;28;20236;-69
2021/12/12 02:50:52;;;;;;;2.83;2.07;;;5.80;99.90;;;;;;4967344;28;20173;-69
2021/12/12 02:53:25;;;;;;;3.70;1.90;;;5.90;99.90;;;;;;4987599;28;20187;-69
2021/12/12 02:55:56;;;;;;;4.53;2.40;;;5.90;99.90;;;;;;4968599;28;20208;-69
2021/12/12 02:58:23;;;;;;;2.93;2.20;;;5.90;99.90;;;;;;4973138;28;20201;-69
2021/12/12 03:01:21;;;;;;;3.43;2.27;;;6.00;99.90;;;;;;4976781;28;20176;-69
2021/12/12 03:03:48;;;;;;;4.10;2.00;;;6.00;99.90;;;;;;4971056;28;20200;-69
2021/12/12 03:06:20;;;;;;;3.83;2.03;;;6.00;99.90;;;;;;4975817;28;20188;-67
2021/12/12 03:08:54;;;;;;;4.80;1.90;;;6.00;99.90;;;;;;4971011;28;20228;-67
2021/12/12 03:11:27;;;;;;;4.10;2.13;;;6.10;99.90;;;;;;4980587;28;20330;-67
2021/12/12 03:13:53;;;;;;;3.50;2.30;;;6.10;99.90;;;;;;4966523;28;20237;-67
2021/12/12 03:16:20;;;;;;;3.73;2.20;;;6.10;99.90;;;;;;4967195;28;20187;-67
2021/12/12 03:18:46;;;;;;;4.03;2.67;;;6.20;99.90;;;;;;4969539;28;20176;-68
2021/12/12 03:21:17;;;;;;;3.97;2.27;;;6.20;99.90;;;;;;4970342;28;20176;-70
2021/12/12 03:23:51;;;;;;;3.40;2.30;;;6.20;99.90;;;;;;4959233;28;20290;-67
2021/12/12 03:26:20;;;;;;;5.07;2.57;;;6.20;99.90;;;;;;4965224;28;20192;-67
2021/12/12 03:28:49;;;;;;;3.10;2.40;;;6.20;99.90;;;;;;4964346;28;20212;-67
2021/12/12 03:31:25;;;;;;;3.73;2.00;;;6.20;99.90;;;;;;4974385;28;20191;-67
2021/12/12 03:33:51;;;;;;;5.03;2.20;;;6.30;99.90;;;;;;4984311;28;20195;-67
2021/12/12 03:36:20;;;;;;;3.57;2.30;;;6.30;99.90;;;;;;4973854;28;20261;-67
2021/12/12 03:38:51;;;;;;;6.13;2.50;;;6.30;99.90;;;;;;4965444;28;20293;-67
2021/12/12 03:41:23;;;;;;;4.20;2.50;;;6.30;99.90;;;;;;4992185;28;20299;-66
2021/12/12 03:43:54;;;;;;;4.73;2.40;;;6.30;99.90;;;;;;4968472;28;20455;-67
2021/12/12 03:46:21;;;;;;;3.83;2.23;;;6.40;99.90;;;;;;4972729;28;20184;-68
2021/12/12 03:48:47;;;;;;;2.87;2.03;;;6.40;99.90;;;;;;4964234;28;20286;-68
2021/12/12 03:51:16;;;;;;;4.63;2.40;;;6.40;99.90;;;;;;4969675;28;20267;-68
2021/12/12 03:53:44;;;;;;;3.73;2.43;;;6.40;99.90;;;;;;4993130;28;20241;-66
2021/12/12 03:56:15;;;;;;;3.93;2.27;;;6.40;99.90;;;;;;4982552;28;20237;-68
2021/12/12 03:58:44;;;;;;;4.07;2.57;;;6.40;99.90;;;;;;4992195;28;20176;-68
2021/12/12 04:01:17;;;;;;;3.07;2.40;;;6.50;99.90;;;;;;4973228;28;20218;-68
2021/12/12 04:03:45;;;;;;;4.77;2.20;;;6.50;99.90;;;;;;4978311;28;20227;-67
2021/12/12 04:06:17;;;;;;;4.00;2.20;;;6.50;99.90;;;;;;4975632;28;20180;-68
2021/12/12 04:08:47;;;;;;;3.33;2.37;;;6.50;99.90;;;;;;4968644;28;20180;-68
2021/12/12 04:11:39;;;;;;;6.77;2.63;;;6.50;99.90;;;;;;4971388;28;20172;-68
2021/12/12 04:14:06;;;;;;;3.43;2.00;;;6.50;99.90;;;;;;4970307;28;20812;-68
2021/12/12 04:16:37;;;;;;;4.07;2.37;;;6.50;99.90;;;;;;4990946;28;20215;-68
2021/12/12 04:19:07;;;;;;;3.27;2.07;;;6.60;99.90;;;;;;4982127;28;20209;-67
2021/12/12 04:21:35;;;;;;;3.27;2.37;;;6.60;99.90;;;;;;4975183;28;20218;-68
2021/12/12 04:24:04;;;;;;;5.13;2.10;;;6.60;99.90;;;;;;4968983;28;20215;-66
2021/12/12 04:26:33;;;;;;;3.20;2.00;;;6.60;99.90;;;;;;4972439;28;20192;-67
2021/12/12 04:29:08;;;;;;;5.87;2.27;;;6.60;99.90;;;;;;4986329;28;20179;-67
2021/12/12 04:31:36;;;;;;;3.03;2.00;;;6.60;99.90;;;;;;4966431;28;20176;-67
2021/12/12 04:34:03;;;;;;;4.17;2.20;;;6.60;99.90;;;;;;4966976;28;20216;-66
2021/12/12 04:36:33;;;;;;;4.00;2.20;;;6.70;99.90;;;;;;4973910;28;20192;-67
2021/12/12 04:39:11;;;;;;;2.63;1.83;;;6.70;99.90;;;;;;4975067;28;20261;-68
2021/12/12 04:41:42;;;;;;;4.50;2.63;;;6.70;99.90;;;;;;4970500;28;20278;-66
2021/12/12 04:44:10;;;;;;;2.90;2.40;;;6.70;99.90;;;;;;4979623;28;20210;-69
2021/12/12 04:49:57;;;;;;;4.17;2.30;;;6.70;99.90;;;;;;4970738;28;20182;-67
2021/12/12 04:52:31;;;;;;;3.23;2.50;;;6.80;99.90;;;;;;4968018;28;20258;-67
2021/12/12 04:55:06;;;;;;;2.97;2.10;;;6.70;99.90;;;;;;4973254;28;20188;-68
2021/12/12 04:57:58;;;;;;;4.13;2.40;;;6.70;99.90;;;;;;4974758;28;20322;-68
2021/12/12 05:00:32;;;;;;;4.27;2.40;;;6.80;99.90;;;;;;4982422;28;20215;-67
2021/12/12 05:03:12;;;;;;;3.80;2.37;;;6.80;99.90;;;;;;4963455;28;20205;-67
2021/12/12 05:06:05;;;;;;;4.43;2.30;;;6.80;99.90;;;;;;4971537;28;20211;-68
2021/12/12 05:09:04;;;;;;;4.83;2.33;;;6.80;99.90;;;;;;4971172;28;20184;-66
2021/12/12 05:11:41;;;;;;;3.20;2.13;;;6.80;99.90;;;;;;4963933;28;20215;-67
2021/12/12 05:14:23;;;;;;;5.17;2.33;;;6.80;99.90;;;;;;4969731;28;20179;-67
2021/12/12 05:17:11;;;;;;;4.40;2.50;;;6.80;99.90;;;;;;4968740;28;20184;-68
2021/12/12 05:19:45;;;;;;;5.00;2.70;;;6.80;99.90;;;;;;4973716;28;20222;-67
2021/12/12 05:22:20;;;;;;;5.17;2.00;;;6.80;99.90;;;;;;4962888;28;20192;-68
2021/12/12 05:24:50;;;;;;;3.77;2.47;;;6.80;99.90;;;;;;4968470;28;20258;-68
2021/12/12 05:27:22;;;;;;;3.40;2.17;;;6.80;99.90;;;;;;4969729;28;20176;-68
2021/12/12 05:29:56;;;;;;;4.13;2.27;;;6.80;99.90;;;;;;4963960;28;20232;-68
2021/12/12 05:32:23;;;;;;;6.30;2.53;;;6.80;99.90;;;;;;4971519;28;20226;-67
2021/12/12 05:34:51;;;;;;;3.27;2.20;;;6.80;99.90;;;;;;4972088;28;20180;-68
2021/12/12 05:37:22;;;;;;;3.40;2.00;;;6.70;99.90;;;;;;4968529;28;20271;-68
2021/12/12 05:39:51;;;;;;;5.23;2.20;;;6.70;99.90;;;;;;4983558;28;20188;-67
2021/12/12 05:42:23;;;;;;;3.73;2.30;;;6.70;99.90;;;;;;4982362;28;20185;-67
2021/12/12 05:44:52;;;;;;;3.90;2.30;;;6.70;99.90;;;;;;4970866;28;20207;-68
2021/12/12 05:47:21;;;;;;;5.73;2.60;;;6.70;99.90;;;;;;4981300;28;20192;-67
2021/12/12 05:49:50;;;;;;;3.43;2.20;;;6.70;99.90;;;;;;4967123;28;20199;-67
2021/12/12 05:52:23;;;;;;;4.73;2.53;;;6.70;99.90;;;;;;4962081;28;20358;-67
2021/12/12 05:54:52;;;;;;;4.03;2.37;;;6.70;99.90;;;;;;4975863;28;20180;-67
2021/12/12 05:57:23;;;;;;;4.10;2.40;;;6.70;99.90;;;;;;4962209;28;20651;-67
2021/12/12 05:59:53;;;;;;;6.50;2.70;;;6.70;99.90;;;;;;4971908;28;20180;-68
2021/12/12 06:02:21;;;;;;;3.67;2.30;;;6.70;99.90;;;;;;4964472;28;20183;-68
2021/12/12 06:04:49;;;;;;;3.10;2.03;;;6.60;99.90;;;;;;4976682;28;20216;-67
2021/12/12 06:07:23;;;;;;;3.27;2.20;;;6.60;99.90;;;;;;4972706;28;20259;-68
2021/12/12 06:09:52;;;;;;;5.90;2.40;;;6.60;99.90;;;;;;4970893;28;20188;-67
2021/12/12 06:12:21;;;;;;;3.80;2.47;;;6.60;99.90;;;;;;4971663;28;20184;-68
2021/12/12 06:14:50;;;;;;;4.97;2.40;;;6.60;99.90;;;;;;4970872;28;20303;-67
2021/12/12 06:17:20;;;;;;;4.83;2.70;;;6.60;99.90;;;;;;4978074;28;20199;-67
2021/12/12 06:19:52;;;;;;;6.17;2.77;;;6.60;99.90;;;;;;4969609;28;20326;-67
2021/12/12 06:22:20;;;;;;;3.77;2.70;;;6.60;99.90;;;;;;4971429;28;20173;-68
2021/12/12 06:24:50;;;;;;;5.70;3.70;;;6.60;99.90;;;;;;4975694;28;20415;-67
2021/12/12 06:27:18;;;;;;;4.60;3.10;;;6.60;99.90;;;;;;4968440;28;20187;-68
2021/12/12 06:29:47;;;;;;;5.73;2.60;;;6.50;99.90;;;;;;4985075;28;20204;-66
2021/12/12 06:32:13;;;;;;;4.40;2.63;;;6.60;99.90;;;;;;4971406;28;20187;-68
2021/12/12 06:34:42;;;;;;;5.27;2.73;;;6.50;99.90;;;;;;4968058;28;20271;-65
2021/12/12 06:37:11;;;;;;;4.40;2.70;;;6.60;99.90;;;;;;4970281;28;20237;-67
2021/12/12 06:39:37;;;;;;;4.97;2.80;;;6.50;99.90;;;;;;4966661;28;20187;-68
2021/12/12 06:42:04;;;;;;;4.47;2.23;;;6.60;99.90;;;;;;4968918;28;20337;-67
2021/12/12 06:44:31;;;;;;;4.47;2.30;;;6.60;99.90;;;;;;4970485;28;20248;-67
2021/12/12 06:47:00;;;;;;;4.40;2.20;;;6.60;99.90;;;;;;4968880;28;20247;-66
2021/12/12 06:49:26;;;;;;;4.87;2.40;;;6.60;99.90;;;;;;4979800;28;20195;-68
2021/12/12 06:51:59;;;;;;;4.70;2.20;;;6.60;99.90;;;;;;4966899;28;20181;-67
2021/12/12 06:54:30;;;;;;;4.67;2.63;;;6.60;99.90;;;;;;4973482;28;20200;-68
2021/12/12 06:56:59;;;;;;;3.80;2.10;;;6.70;99.90;;;;;;4969225;28;20269;-66
2021/12/12 06:59:30;;;;;;;3.57;2.20;;;6.70;99.90;;;;;;4980427;28;20180;-67
2021/12/12 07:02:01;;;;;;;3.87;2.00;;;6.70;99.90;;;;;;4960484;28;20208;-68
2021/12/12 07:04:30;;;;;;;4.97;2.77;;;6.70;99.90;;;;;;4970686;28;20204;-67
2021/12/12 07:06:58;;;;;;;4.77;2.40;;;6.80;99.90;;;;;;4977104;28;20173;-68
2021/12/12 07:09:30;;;;;;;3.33;2.07;;;6.80;99.90;;;;;;4968884;28;20173;-66
2021/12/12 07:12:00;;;;;;;3.30;1.87;;;6.80;99.90;;;;;;4968008;28;20225;-67
2021/12/12 07:14:26;;;;;;;2.50;1.67;;;6.80;99.90;;;;;;4970449;28;20200;-66
2021/12/12 07:16:55;;;;;;;2.33;1.70;;;6.90;99.90;;;;;;4968525;28;20192;-68
2021/12/12 07:19:22;;;;;;;4.23;1.80;;;6.90;99.90;;;;;;4972693;28;20193;-68
2021/12/12 07:21:50;;;;;;;4.20;1.50;;;6.90;99.90;;;;;;4969900;28;20176;-68
2021/12/12 07:24:20;;;;;;;2.20;1.50;;;6.90;99.90;;;;;;4967917;28;20242;-67
2021/12/12 07:26:51;;;;;;;3.70;1.73;;;7.00;99.90;;;;;;4970441;28;20196;-68
2021/12/12 07:29:17;;;;;;;2.57;1.70;;;7.00;99.90;;;;;;4967567;28;20207;-68
2021/12/12 07:31:45;;;;;;;2.67;1.60;;;7.00;99.90;;;;;;4971645;28;20172;-68
2021/12/12 07:34:15;;;;;;;3.10;1.50;;;7.00;99.90;;;;;;4979788;28;20195;-67
2021/12/12 07:36:46;;;;;;;2.37;1.50;;;7.10;99.90;;;;;;4971124;28;20207;-67
2021/12/12 07:39:14;;;;;;;2.97;1.60;;;7.10;99.90;;;;;;4982662;28;20191;-68
2021/12/12 07:41:44;;;;;;;3.70;1.30;;;7.10;99.90;;;;;;4978348;28;20295;-66
2021/12/12 07:44:13;;;;;;;2.53;1.60;;;7.10;99.90;;;;;;4969558;28;20267;-67
2021/12/12 07:46:40;;;;;;;2.70;1.63;;;7.20;99.90;;;;;;4970350;28;20404;-67
2021/12/12 07:49:06;;;;;;;2.17;1.40;;;7.20;99.90;;;;;;4970734;28;20183;-67
2021/12/12 07:51:35;;;;;;;2.27;1.30;;;7.20;99.90;;;;;;4970849;28;20188;-67
2021/12/12 07:54:03;;;;;;;4.03;1.80;;;7.20;99.90;;;;;;4968810;28;20196;-66
2021/12/12 07:56:31;;;;;;;2.33;1.33;;;7.20;99.90;;;;;;4967266;28;20187;-67
2021/12/12 07:59:00;;;;;;;2.33;1.47;;;7.30;99.90;;;;;;4970589;28;20199;-67
2021/12/12 08:01:27;;;;;;;2.67;1.40;;;7.30;99.90;;;;;;4982846;28;20230;-67
2021/12/12 08:03:56;;;;;;;2.60;1.50;;;7.30;99.90;;;;;;4970535;28;20244;-67
2021/12/12 08:06:25;;;;;;;2.40;1.40;;;7.30;99.90;;;;;;4968355;28;20184;-67
2021/12/12 08:08:52;;;;;;;2.60;1.30;;;7.40;99.90;;;;;;4969674;28;20453;-69
2021/12/12 08:11:23;;;;;;;2.77;1.30;;;7.40;99.90;;;;;;4970035;28;20172;-67
2021/12/12 08:13:49;;;;;;;1.70;1.13;;;7.40;99.90;;;;;;4969667;28;20233;-66
2021/12/12 08:16:15;;;;;;;2.17;1.30;;;7.40;99.90;;;;;;4962713;28;20257;-67
2021/12/12 08:18:44;;;;;;;1.77;1.10;;;7.40;99.90;;;;;;4979921;28;20184;-67
2021/12/12 08:21:10;;;;;;;1.80;1.20;;;7.40;99.90;;;;;;4976377;28;20204;-66
2021/12/12 08:23:37;;;;;;;2.20;1.10;;;7.50;99.90;;;;;;4969807;28;20204;-67
2021/12/12 08:26:10;;;;;;;2.70;1.20;;;7.50;99.90;;;;;;4969989;28;20192;-66
2021/12/12 08:28:37;;;;;;;2.47;1.20;;;7.50;99.90;;;;;;4956813;28;20190;-67
2021/12/12 08:31:05;;;;;;;2.87;1.30;;;7.50;99.90;;;;;;4980558;28;20475;-66
2021/12/12 08:33:31;;;;;;;1.80;1.17;;;7.50;99.90;;;;;;4967389;28;20216;-66
2021/12/12 08:35:58;;;;;;;2.17;1.20;;;7.50;99.90;;;;;;4969461;28;20250;-67
2021/12/12 08:38:24;;;;;;;1.37;1.00;;;7.60;99.90;;;;;;4982596;28;20192;-66
2021/12/12 08:40:54;;;;;;;2.37;1.10;;;7.60;99.90;;;;;;5011628;28;20268;-64
2021/12/12 08:43:22;;;;;;;1.30;0.90;;;7.60;99.90;;;;;;4976060;28;20227;-64
2021/12/12 08:45:58;;;;;;;1.50;0.90;;;7.70;99.90;;;;;;4969421;28;20169;-65
2021/12/12 08:48:27;;;;;;;1.70;1.00;;;7.70;99.90;;;;;;4972799;28;20287;-64
2021/12/12 08:50:57;;;;;;;0.97;0.80;;;7.70;99.90;;;;;;4971573;28;20191;-66
2021/12/12 08:53:24;;;;;;;1.10;0.80;;;7.70;99.90;;;;;;4979326;28;20406;-66
2021/12/12 08:55:53;;;;;;;1.53;1.00;;;7.70;99.90;;;;;;4973754;28;20183;-66
2021/12/12 08:58:25;;;;;;;0.87;0.80;;;7.80;99.90;;;;;;4974612;28;20184;-66
2021/12/12 09:01:06;;;;;;;1.30;0.80;;;7.80;99.90;;;;;;4980360;28;20461;-66
2021/12/12 09:03:51;;;;;;;1.43;0.67;;;7.80;99.90;;;;;;4968215;28;20199;-66
2021/12/12 09:06:21;;;;;;;1.03;0.70;;;7.90;99.90;;;;;;4972945;28;20191;-66
2021/12/12 09:08:55;;;;;;;1.20;0.90;;;7.90;99.90;;;;;;4971711;28;20203;-64
2021/12/12 09:11:27;;;;;;;1.23;0.90;;;7.90;99.90;;;;;;4972997;28;20415;-64
2021/12/12 09:14:01;;;;;;;1.30;0.80;;;8.00;99.90;;;;;;4962883;28;20185;-64
2021/12/12 09:16:39;;;;;;;0.83;0.60;;;8.00;99.90;;;;;;4973560;28;20179;-64
2021/12/12 09:19:09;;;;;;;0.90;0.63;;;8.00;99.90;;;;;;4972794;28;20191;-65
2021/12/12 09:21:55;;;;;;;1.10;0.83;;;8.00;99.90;;;;;;4987674;28;20272;-65
2021/12/12 09:24:30;;;;;;;0.80;0.70;;;8.10;99.90;;;;;;4971542;28;20256;-65
2021/12/12 09:27:05;;;;;;;0.93;0.70;;;8.10;99.90;;;;;;4983771;28;20396;-65
2021/12/12 09:29:45;;;;;;;0.50;0.50;;;8.20;99.90;;;;;;4971854;28;20247;-64
2021/12/12 09:32:21;;;;;;;0.73;0.47;;;8.20;99.90;;;;;;4970687;28;20183;-64
2021/12/12 09:35:00;;;;;;;0.67;0.60;;;8.30;99.90;;;;;;4971366;28;20191;-65
2021/12/12 09:37:46;;;;;;;0.73;0.50;;;8.30;99.90;;;;;;4969213;28;20190;-65
2021/12/12 09:40:16;;;;;;;0.60;0.50;;;8.40;99.90;;;;;;4968810;28;20231;-65
2021/12/12 09:42:46;;;;;;;0.70;0.60;;;8.40;99.90;;;;;;4967266;28;20176;-65
2021/12/12 09:45:37;;;;;;;1.10;0.80;;;8.50;99.90;;;;;;4955979;28;20253;-65
2021/12/12 09:54:04;;;;;;;0.60;0.50;;;8.60;99.90;;;;;;4975431;28;20202;-64
2021/12/12 09:56:36;;;;;;;0.87;0.60;;;8.60;99.90;;;;;;4968958;28;20207;-65
2021/12/12 09:59:05;;;;;;;2.27;0.60;;;8.70;99.90;;;;;;4970721;28;20244;-64
2021/12/12 10:01:42;;;;;;;0.60;0.50;;;8.70;99.90;;;;;;4968091;28;20181;-64
2021/12/12 10:04:08;;;;;;;0.70;0.50;;;8.70;99.90;;;;;;4970876;28;20214;-65
2021/12/12 10:07:00;;;;;;;1.30;0.80;;;8.80;99.90;;;;;;4972189;28;20190;-65
2021/12/12 10:09:48;;;;;;;0.63;0.57;;;8.80;99.90;;;;;;4978754;28;20225;-65
2021/12/12 10:12:23;;;;;;;0.70;0.60;;;8.90;99.90;;;;;;4962125;28;20210;-64
2021/12/12 10:14:59;;;;;;;1.00;0.70;;;8.90;99.90;;;;;;4971632;28;20183;-64
2021/12/12 10:17:48;;;;;;;0.83;0.60;;;8.90;99.90;;;;;;4966463;28;20255;-65
2021/12/12 10:20:33;;;;;;;0.83;0.60;;;9.00;99.90;;;;;;4976978;28;20187;-65
2021/12/12 10:23:12;;;;;;;1.07;0.70;;;9.00;99.90;;;;;;4970557;28;20200;-65
2021/12/12 10:25:47;;;;;;;1.80;0.80;;;9.00;99.90;;;;;;4975564;28;20188;-65
2021/12/12 10:28:28;;;;;;;0.97;0.80;;;9.00;99.90;;;;;;4970462;28;20186;-65
2021/12/12 10:31:03;;;;;;;0.80;0.60;;;9.00;99.90;;;;;;4968484;28;20188;-65
2021/12/12 10:33:59;;;;;;;0.97;0.80;;;9.10;99.90;;;;;;4972968;28;20252;-65
2021/12/12 10:36:52;;;;;;;0.70;0.67;;;9.10;99.90;;;;;;4965654;28;20240;-66
2021/12/12 10:39:31;;;;;;;0.90;0.73;;;9.10;99.90;;;;;;4973662;28;20561;-64
2021/12/12 10:42:01;;;;;;;1.20;0.80;;;9.20;99.90;;;;;;4986621;28;20244;-65
2021/12/12 10:44:42;;;;;;;2.10;0.70;;;9.20;99.90;;;;;;4961967;28;20278;-66
2021/12/12 10:47:30;;;;;;;0.87;0.70;;;9.20;99.90;;;;;;4963074;28;20264;-65
2021/12/12 10:50:19;;;;;;;0.70;0.63;;;9.30;99.90;;;;;;4974400;28;20201;-66
2021/12/12 10:52:58;;;;;;;0.80;0.70;;;9.30;99.90;;;;;;4974704;28;20184;-65
2021/12/12 10:55:30;;;;;;;0.70;0.60;;;9.30;99.90;;;;;;4971925;28;20203;-65
2021/12/12 10:58:21;;;;;;;1.13;0.60;;;9.40;99.90;;;;;;4962586;28;20169;-66
2021/12/12 11:01:01;;;;;;;0.90;0.63;;;9.40;99.90;;;;;;4969775;28;20179;-67
2021/12/12 11:03:33;;;;;;;0.70;0.50;;;9.40;99.90;;;;;;4970859;28;20482;-65
2021/12/12 11:06:01;;;;;;;1.20;0.80;;;9.40;99.90;;;;;;4966609;28;20180;-66
2021/12/12 11:08:47;;;;;;;0.60;0.50;;;9.50;99.90;;;;;;4971968;28;20180;-66
2021/12/12 11:11:17;;;;;;;0.80;0.70;;;9.50;99.90;;;;;;4980854;28;20184;-65
2021/12/12 11:13:53;;;;;;;0.80;0.70;;;9.50;99.90;;;;;;4971036;28;20263;-65
2021/12/12 11:16:21;;;;;;;0.87;0.60;;;9.50;99.90;;;;;;4966947;28;20195;-65
2021/12/12 11:18:57;;;;;;;1.10;0.80;;;9.50;99.90;;;;;;4964159;28;20172;-65
2021/12/12 11:21:42;;;;;;;1.17;0.87;;;9.50;99.90;;;;;;4968751;28;20176;-65
2021/12/12 11:24:21;;;;;;;1.63;0.80;;;9.50;99.90;;;;;;4970518;28;20234;-66
2021/12/12 11:27:04;;;;;;;1.37;0.90;;;9.50;99.90;;;;;;4970499;28;20239;-65
2021/12/12 11:29:55;;;;;;;1.00;0.87;;;9.50;99.90;;;;;;4964463;28;20200;-66
2021/12/12 11:32:29;;;;;;;1.77;1.03;;;9.50;99.90;;;;;;4953380;28;20196;-65
2021/12/12 11:34:57;;;;;;;1.37;1.10;;;9.60;99.90;;;;;;4963518;28;20188;-65
2021/12/12 11:37:29;;;;;;;1.17;0.87;;;9.60;99.90;;;;;;4966592;28;20265;-65
2021/12/12 11:40:07;;;;;;;1.77;0.90;;;9.60;99.90;;;;;;4987912;28;20195;-66
2021/12/12 11:42:51;;;;;;;0.77;0.73;;;9.60;99.90;;;;;;4968511;28;20183;-65
2021/12/12 11:45:32;;;;;;;0.93;0.73;;;9.60;99.90;;;;;;4971280;28;20208;-66
2021/12/12 11:48:13;;;;;;;1.27;0.90;;;9.60;99.90;;;;;;4964718;28;20207;-66
2021/12/12 11:50:57;;;;;;;1.53;0.80;;;9.60;99.90;;;;;;4963263;28;20223;-65
2021/12/12 11:53:53;;;;;;;1.10;0.60;;;9.60;99.90;;;;;;4963214;28;20195;-66
2021/12/12 11:56:45;;;;;;;0.83;0.60;;;9.60;99.90;;;;;;4970560;28;20176;-65
2021/12/12 11:59:16;;;;;;;0.63;0.60;;;9.60;99.90;;;;;;4980491;28;20184;-65
2021/12/12 12:01:48;;;;;;;0.70;0.50;;;9.70;99.90;;;;;;4971190;28;20220;-66
2021/12/12 12:04:36;;;;;;;2.10;1.07;;;9.70;99.90;;;;;;4963611;28;20211;-65
2021/12/12 12:07:04;;;;;;;0.90;0.60;;;9.80;99.90;;;;;;4973673;28;20257;-65
2021/12/12 12:10:16;;;;;;;1.00;0.90;;;9.80;99.90;;;;;;4969229;28;20177;-65
2021/12/12 12:13:11;;;;;;;0.50;0.50;;;9.80;99.90;;;;;;4984558;28;20176;-65
2021/12/12 12:15:40;;;;;;;1.63;0.70;;;9.90;99.90;;;;;;4974742;28;20176;-65
2021/12/12 12:18:33;;;;;;;0.73;0.70;;;9.90;99.90;;;;;;4974579;28;20282;-66
2021/12/12 12:21:09;;;;;;;1.20;0.70;;;10.00;99.90;;;;;;4973244;28;20344;-66
2021/12/12 12:24:10;;;;;;;0.70;0.70;;;10.00;99.90;;;;;;4973013;28;20199;-67
2021/12/12 12:26:51;;;;;;;1.33;0.90;;;10.10;99.90;;;;;;4971872;28;20196;-66
2021/12/12 12:29:30;;;;;;;1.58;0.88;;;10.20;99.90;;;;;;4968326;28;20184;-66
2021/12/12 12:32:33;;;;;;;1.03;0.83;;;10.20;99.90;;;;;;4969805;28;20203;-67
2021/12/12 12:35:51;;;;;;;1.67;0.90;;;10.20;99.90;;;;;;4971523;28;20179;-68
2021/12/12 12:39:26;;;;;;;1.23;0.90;;;10.30;99.90;;;;;;4943456;28;20203;-66
2021/12/12 12:42:01;;;;;;;1.43;1.00;;;10.30;99.90;;;;;;4984601;28;20273;-66
2021/12/12 12:45:05;;;;;;;0.80;0.73;;;10.30;99.90;;;;;;5000170;28;20301;-67
2021/12/12 12:47:58;;;;;;;1.10;0.80;;;10.30;99.90;;;;;;4977717;28;20175;-64
2021/12/12 12:50:40;;;;;;;0.67;0.57;;;10.30;99.90;;;;;;4981749;28;20181;-66
2021/12/12 12:53:24;;;;;;;1.20;1.00;;;10.30;99.90;;;;;;4976188;28;20179;-65
2021/12/12 12:56:06;;;;;;;1.40;0.90;;;10.30;99.90;;;;;;4972274;28;20447;-66
2021/12/12 12:59:04;;;;;;;0.93;0.70;;;10.30;99.90;;;;;;4975983;28;20192;-65
2021/12/12 13:01:48;;;;;;;1.63;0.80;;;10.40;99.90;;;;;;4971775;28;20176;-65
2021/12/12 13:05:05;;;;;;;1.30;0.90;;;10.40;99.90;;;;;;4997284;28;20199;-66
2021/12/12 13:07:34;;;;;;;1.00;0.80;;;10.40;99.90;;;;;;4969618;28;20230;-66
2021/12/12 13:10:02;;;;;;;1.20;0.70;;;10.40;99.90;;;;;;4981480;28;20174;-66
2021/12/12 13:13:06;;;;;;;1.03;0.70;;;10.50;99.90;;;;;;4965950;28;20322;-66
2021/12/12 13:15:31;;;;;;;1.20;0.70;;;10.50;99.90;;;;;;4975174;28;20180;-66
2021/12/12 13:18:16;;;;;;;1.00;0.70;;;10.40;99.90;;;;;;4970014;28;20241;-65
2021/12/12 13:20:52;;;;;;;1.48;0.70;;;10.40;99.90;;;;;;4961019;28;20194;-65
2021/12/12 13:23:47;;;;;;;1.35;0.88;;;10.40;99.90;;;;;;4962994;28;20198;-65
2021/12/12 13:26:23;;;;;;;1.88;0.80;;;10.40;99.90;;;;;;4969489;28;20168;-65
2021/12/12 13:29:16;;;;;;;1.13;0.88;;;10.40;99.90;;;;;;4970821;28;20184;-66
2021/12/12 13:31:57;;;;;;;1.13;0.80;;;10.40;99.90;;;;;;4975833;28;20292;-65
2021/12/12 13:34:47;;;;;;;1.57;0.87;;;10.40;99.90;;;;;;4966568;28;20181;-65
2021/12/12 13:37:56;;;;;;;1.10;0.80;;;10.40;99.90;;;;;;4973755;28;20216;-65
2021/12/12 13:40:31;;;;;;;1.27;0.80;;;10.40;99.90;;;;;;5000824;28;20251;-65
2021/12/12 13:43:18;;;;;;;1.27;0.73;;;10.50;99.90;;;;;;4974768;28;20198;-65
2021/12/12 13:45:59;;;;;;;1.33;0.82;;;10.50;99.90;;;;;;4978399;28;20700;-65
2021/12/12 13:48:47;;;;;;;0.80;0.73;;;10.50;99.90;;;;;;4970402;28;20237;-66
2021/12/12 13:51:41;;;;;;;1.42;0.90;;;10.50;99.90;;;;;;4974620;28;20176;-65
2021/12/12 13:54:23;;;;;;;1.20;0.80;;;10.50;99.90;;;;;;4964869;28;20187;-65
2021/12/12 13:57:11;;;;;;;1.30;0.90;;;10.50;99.90;;;;;;4962172;28;20184;-66